sensor_id;sensor_type;location;lat;lon;timestamp;P1;durP1;ratioP1;P2;durP2;ratioP2
76202;SDS011;64985;46.364;17.008;2023-10-08T00:01:08;17.60;;;10.70;;
76202;SDS011;64985;46.364;17.008;2023-10-08T00:04:16;18.00;;;10.35;;
76202;SDS011;64985;46.364;17.008;2023-10-08T00:07:22;16.65;;;10.00;;
76202;SDS011;64985;46.364;17.008;2023-10-08T00:10:25;18.48;;;10.98;;
76202;SDS011;64985;46.364;17.008;2023-10-08T00:13:28;15.38;;;10.63;;
76202;SDS011;64985;46.364;17.008;2023-10-08T00:16:31;13.20;;;10.13;;
76202;SDS011;64985;46.364;17.008;2023-10-08T00:19:35;16.40;;;10.52;;
76202;SDS011;64985;46.364;17.008;2023-10-08T00:22:39;16.33;;;10.63;;
76202;SDS011;64985;46.364;17.008;2023-10-08T00:25:42;15.60;;;10.57;;
76202;SDS011;64985;46.364;17.008;2023-10-08T00:28:49;16.00;;;11.18;;
76202;SDS011;64985;46.364;17.008;2023-10-08T00:31:53;21.02;;;11.27;;
76202;SDS011;64985;46.364;17.008;2023-10-08T00:34:58;18.27;;;11.50;;
76202;SDS011;64985;46.364;17.008;2023-10-08T00:38:01;15.75;;;10.07;;
76202;SDS011;64985;46.364;17.008;2023-10-08T00:41:13;17.73;;;10.82;;
76202;SDS011;64985;46.364;17.008;2023-10-08T00:44:23;15.25;;;10.75;;
76202;SDS011;64985;46.364;17.008;2023-10-08T00:47:30;15.63;;;11.00;;
76202;SDS011;64985;46.364;17.008;2023-10-08T00:50:37;15.95;;;11.23;;
76202;SDS011;64985;46.364;17.008;2023-10-08T00:53:47;18.67;;;11.05;;
76202;SDS011;64985;46.364;17.008;2023-10-08T00:57:00;15.65;;;11.07;;
76202;SDS011;64985;46.364;17.008;2023-10-08T01:00:07;16.52;;;11.80;;
76202;SDS011;64985;46.364;17.008;2023-10-08T01:03:17;16.13;;;10.10;;
76202;SDS011;64985;46.364;17.008;2023-10-08T01:06:21;16.67;;;10.98;;
76202;SDS011;64985;46.364;17.008;2023-10-08T01:09:25;14.88;;;10.30;;
76202;SDS011;64985;46.364;17.008;2023-10-08T01:12:36;18.33;;;10.77;;
76202;SDS011;64985;46.364;17.008;2023-10-08T01:15:51;17.02;;;10.40;;
76202;SDS011;64985;46.364;17.008;2023-10-08T01:18:53;15.50;;;10.55;;
76202;SDS011;64985;46.364;17.008;2023-10-08T01:21:56;17.40;;;10.77;;
76202;SDS011;64985;46.364;17.008;2023-10-08T01:25:01;20.55;;;11.18;;
76202;SDS011;64985;46.364;17.008;2023-10-08T01:28:04;19.33;;;10.52;;
76202;SDS011;64985;46.364;17.008;2023-10-08T01:31:16;15.15;;;10.65;;
76202;SDS011;64985;46.364;17.008;2023-10-08T01:34:18;17.20;;;10.50;;
76202;SDS011;64985;46.364;17.008;2023-10-08T01:40:35;17.80;;;9.55;;
76202;SDS011;64985;46.364;17.008;2023-10-08T01:43:37;15.23;;;10.23;;
76202;SDS011;64985;46.364;17.008;2023-10-08T01:46:40;16.75;;;10.80;;
76202;SDS011;64985;46.364;17.008;2023-10-08T01:49:43;17.75;;;12.07;;
76202;SDS011;64985;46.364;17.008;2023-10-08T01:52:49;17.70;;;11.15;;
76202;SDS011;64985;46.364;17.008;2023-10-08T01:55:54;16.08;;;11.43;;
76202;SDS011;64985;46.364;17.008;2023-10-08T01:58:57;16.17;;;11.95;;
76202;SDS011;64985;46.364;17.008;2023-10-08T02:01:59;15.48;;;11.52;;
76202;SDS011;64985;46.364;17.008;2023-10-08T02:05:01;20.08;;;11.68;;
76202;SDS011;64985;46.364;17.008;2023-10-08T02:08:09;18.60;;;11.60;;
76202;SDS011;64985;46.364;17.008;2023-10-08T02:11:12;17.80;;;11.32;;
76202;SDS011;64985;46.364;17.008;2023-10-08T02:14:17;15.82;;;10.63;;
76202;SDS011;64985;46.364;17.008;2023-10-08T02:17:20;18.02;;;10.43;;
76202;SDS011;64985;46.364;17.008;2023-10-08T02:20:23;15.52;;;10.48;;
76202;SDS011;64985;46.364;17.008;2023-10-08T02:23:25;16.25;;;10.57;;
76202;SDS011;64985;46.364;17.008;2023-10-08T02:26:30;15.88;;;10.27;;
76202;SDS011;64985;46.364;17.008;2023-10-08T02:29:33;15.02;;;10.35;;
76202;SDS011;64985;46.364;17.008;2023-10-08T02:32:35;19.05;;;10.05;;
76202;SDS011;64985;46.364;17.008;2023-10-08T02:35:38;19.42;;;10.00;;
76202;SDS011;64985;46.364;17.008;2023-10-08T02:38:40;16.08;;;11.10;;
76202;SDS011;64985;46.364;17.008;2023-10-08T02:41:43;17.88;;;11.13;;
76202;SDS011;64985;46.364;17.008;2023-10-08T02:44:49;15.73;;;11.05;;
76202;SDS011;64985;46.364;17.008;2023-10-08T02:47:53;19.63;;;11.40;;
76202;SDS011;64985;46.364;17.008;2023-10-08T02:50:57;14.80;;;10.65;;
76202;SDS011;64985;46.364;17.008;2023-10-08T02:54:08;16.88;;;11.30;;
76202;SDS011;64985;46.364;17.008;2023-10-08T03:00:23;17.25;;;10.38;;
76202;SDS011;64985;46.364;17.008;2023-10-08T03:03:31;17.38;;;10.40;;
76202;SDS011;64985;46.364;17.008;2023-10-08T03:06:34;18.60;;;11.07;;
76202;SDS011;64985;46.364;17.008;2023-10-08T03:09:37;18.80;;;11.15;;
76202;SDS011;64985;46.364;17.008;2023-10-08T03:12:44;18.75;;;10.98;;
76202;SDS011;64985;46.364;17.008;2023-10-08T03:15:51;16.70;;;10.98;;
76202;SDS011;64985;46.364;17.008;2023-10-08T03:19:10;16.50;;;11.80;;
76202;SDS011;64985;46.364;17.008;2023-10-08T03:22:12;17.40;;;11.65;;
76202;SDS011;64985;46.364;17.008;2023-10-08T03:25:14;19.83;;;11.88;;
76202;SDS011;64985;46.364;17.008;2023-10-08T03:28:22;19.55;;;12.18;;
76202;SDS011;64985;46.364;17.008;2023-10-08T03:31:26;15.35;;;11.27;;
76202;SDS011;64985;46.364;17.008;2023-10-08T03:34:47;16.98;;;12.13;;
76202;SDS011;64985;46.364;17.008;2023-10-08T03:37:50;16.63;;;11.90;;
76202;SDS011;64985;46.364;17.008;2023-10-08T03:40:52;17.73;;;10.93;;
76202;SDS011;64985;46.364;17.008;2023-10-08T03:43:58;19.17;;;11.90;;
76202;SDS011;64985;46.364;17.008;2023-10-08T03:47:07;18.60;;;11.73;;
76202;SDS011;64985;46.364;17.008;2023-10-08T03:50:13;16.83;;;11.77;;
76202;SDS011;64985;46.364;17.008;2023-10-08T03:53:19;16.70;;;11.32;;
76202;SDS011;64985;46.364;17.008;2023-10-08T03:56:28;17.40;;;12.07;;
76202;SDS011;64985;46.364;17.008;2023-10-08T03:59:33;16.00;;;11.50;;
76202;SDS011;64985;46.364;17.008;2023-10-08T04:02:44;16.95;;;11.18;;
76202;SDS011;64985;46.364;17.008;2023-10-08T04:05:57;15.82;;;10.60;;
76202;SDS011;64985;46.364;17.008;2023-10-08T04:09:17;17.73;;;10.55;;
76202;SDS011;64985;46.364;17.008;2023-10-08T04:12:22;17.05;;;10.65;;
76202;SDS011;64985;46.364;17.008;2023-10-08T04:15:24;14.15;;;10.23;;
76202;SDS011;64985;46.364;17.008;2023-10-08T04:18:26;17.70;;;10.68;;
76202;SDS011;64985;46.364;17.008;2023-10-08T04:21:29;15.68;;;10.20;;
76202;SDS011;64985;46.364;17.008;2023-10-08T04:24:31;14.73;;;9.98;;
76202;SDS011;64985;46.364;17.008;2023-10-08T04:27:36;17.48;;;10.13;;
76202;SDS011;64985;46.364;17.008;2023-10-08T04:30:38;21.92;;;10.15;;
76202;SDS011;64985;46.364;17.008;2023-10-08T04:33:43;18.58;;;10.65;;
76202;SDS011;64985;46.364;17.008;2023-10-08T04:36:46;16.48;;;9.82;;
76202;SDS011;64985;46.364;17.008;2023-10-08T04:39:55;16.50;;;10.20;;
76202;SDS011;64985;46.364;17.008;2023-10-08T04:43:01;18.35;;;10.90;;
76202;SDS011;64985;46.364;17.008;2023-10-08T04:46:04;31.35;;;11.18;;
76202;SDS011;64985;46.364;17.008;2023-10-08T04:49:27;20.58;;;10.10;;
76202;SDS011;64985;46.364;17.008;2023-10-08T04:52:30;18.42;;;9.93;;
76202;SDS011;64985;46.364;17.008;2023-10-08T04:55:35;16.80;;;10.57;;
76202;SDS011;64985;46.364;17.008;2023-10-08T04:58:46;15.38;;;11.00;;
76202;SDS011;64985;46.364;17.008;2023-10-08T05:01:49;16.52;;;10.90;;
76202;SDS011;64985;46.364;17.008;2023-10-08T05:05:10;14.90;;;9.63;;
76202;SDS011;64985;46.364;17.008;2023-10-08T05:08:12;15.85;;;10.20;;
76202;SDS011;64985;46.364;17.008;2023-10-08T05:11:30;18.35;;;10.38;;
76202;SDS011;64985;46.364;17.008;2023-10-08T05:14:48;17.98;;;10.75;;
76202;SDS011;64985;46.364;17.008;2023-10-08T05:18:09;16.15;;;10.25;;
76202;SDS011;64985;46.364;17.008;2023-10-08T05:21:14;17.60;;;11.05;;
76202;SDS011;64985;46.364;17.008;2023-10-08T05:24:28;17.33;;;10.45;;
76202;SDS011;64985;46.364;17.008;2023-10-08T05:27:40;16.02;;;10.25;;
76202;SDS011;64985;46.364;17.008;2023-10-08T05:30:49;16.95;;;10.18;;
76202;SDS011;64985;46.364;17.008;2023-10-08T05:33:57;16.70;;;11.02;;
76202;SDS011;64985;46.364;17.008;2023-10-08T05:37:05;19.10;;;10.85;;
76202;SDS011;64985;46.364;17.008;2023-10-08T05:40:08;16.27;;;11.05;;
76202;SDS011;64985;46.364;17.008;2023-10-08T05:43:23;16.90;;;11.02;;
76202;SDS011;64985;46.364;17.008;2023-10-08T05:46:55;19.02;;;10.95;;
76202;SDS011;64985;46.364;17.008;2023-10-08T05:49:58;15.27;;;10.98;;
76202;SDS011;64985;46.364;17.008;2023-10-08T05:53:19;16.77;;;11.45;;
76202;SDS011;64985;46.364;17.008;2023-10-08T05:56:32;15.98;;;10.88;;
76202;SDS011;64985;46.364;17.008;2023-10-08T05:59:53;15.45;;;11.48;;
76202;SDS011;64985;46.364;17.008;2023-10-08T06:02:59;18.85;;;11.70;;
76202;SDS011;64985;46.364;17.008;2023-10-08T06:06:12;19.73;;;11.68;;
76202;SDS011;64985;46.364;17.008;2023-10-08T06:09:14;19.48;;;11.40;;
76202;SDS011;64985;46.364;17.008;2023-10-08T06:12:16;17.42;;;11.50;;
76202;SDS011;64985;46.364;17.008;2023-10-08T06:15:47;17.70;;;10.40;;
76202;SDS011;64985;46.364;17.008;2023-10-08T06:19:07;16.42;;;10.57;;
76202;SDS011;64985;46.364;17.008;2023-10-08T06:22:13;15.75;;;10.13;;
76202;SDS011;64985;46.364;17.008;2023-10-08T06:25:15;20.30;;;10.98;;
76202;SDS011;64985;46.364;17.008;2023-10-08T06:28:19;16.25;;;10.63;;
76202;SDS011;64985;46.364;17.008;2023-10-08T06:31:22;15.23;;;9.80;;
76202;SDS011;64985;46.364;17.008;2023-10-08T06:34:27;16.17;;;9.63;;
76202;SDS011;64985;46.364;17.008;2023-10-08T06:37:33;16.55;;;10.55;;
76202;SDS011;64985;46.364;17.008;2023-10-08T06:40:36;14.70;;;9.38;;
76202;SDS011;64985;46.364;17.008;2023-10-08T06:43:39;12.98;;;9.07;;
76202;SDS011;64985;46.364;17.008;2023-10-08T06:47:05;14.70;;;9.10;;
76202;SDS011;64985;46.364;17.008;2023-10-08T06:50:11;14.07;;;8.75;;
76202;SDS011;64985;46.364;17.008;2023-10-08T06:53:17;17.58;;;9.02;;
76202;SDS011;64985;46.364;17.008;2023-10-08T06:56:23;13.43;;;9.18;;
76202;SDS011;64985;46.364;17.008;2023-10-08T06:59:25;14.40;;;8.40;;
76202;SDS011;64985;46.364;17.008;2023-10-08T07:02:33;12.52;;;8.55;;
76202;SDS011;64985;46.364;17.008;2023-10-08T07:05:37;17.77;;;6.95;;
76202;SDS011;64985;46.364;17.008;2023-10-08T07:08:43;11.32;;;6.68;;
76202;SDS011;64985;46.364;17.008;2023-10-08T07:11:55;10.68;;;6.90;;
76202;SDS011;64985;46.364;17.008;2023-10-08T07:14:58;13.05;;;6.55;;
76202;SDS011;64985;46.364;17.008;2023-10-08T07:18:01;11.98;;;7.30;;
76202;SDS011;64985;46.364;17.008;2023-10-08T07:21:11;12.45;;;6.97;;
76202;SDS011;64985;46.364;17.008;2023-10-08T07:24:14;12.60;;;6.70;;
76202;SDS011;64985;46.364;17.008;2023-10-08T07:27:19;12.32;;;6.43;;
76202;SDS011;64985;46.364;17.008;2023-10-08T07:30:36;12.68;;;6.13;;
76202;SDS011;64985;46.364;17.008;2023-10-08T07:33:42;11.32;;;6.13;;
76202;SDS011;64985;46.364;17.008;2023-10-08T07:36:46;12.55;;;6.15;;
76202;SDS011;64985;46.364;17.008;2023-10-08T07:39:51;10.27;;;5.80;;
76202;SDS011;64985;46.364;17.008;2023-10-08T07:42:56;14.25;;;5.85;;
76202;SDS011;64985;46.364;17.008;2023-10-08T07:45:58;11.70;;;6.10;;
76202;SDS011;64985;46.364;17.008;2023-10-08T07:49:02;10.85;;;5.85;;
76202;SDS011;64985;46.364;17.008;2023-10-08T07:52:05;13.00;;;5.97;;
76202;SDS011;64985;46.364;17.008;2023-10-08T07:55:08;9.90;;;5.38;;
76202;SDS011;64985;46.364;17.008;2023-10-08T07:58:10;12.20;;;5.63;;
76202;SDS011;64985;46.364;17.008;2023-10-08T08:01:12;9.65;;;5.30;;
76202;SDS011;64985;46.364;17.008;2023-10-08T08:04:16;11.82;;;5.30;;
76202;SDS011;64985;46.364;17.008;2023-10-08T08:07:24;10.48;;;5.35;;
76202;SDS011;64985;46.364;17.008;2023-10-08T08:10:28;9.45;;;5.32;;
76202;SDS011;64985;46.364;17.008;2023-10-08T08:13:31;8.85;;;4.90;;
76202;SDS011;64985;46.364;17.008;2023-10-08T08:16:35;11.52;;;4.55;;
76202;SDS011;64985;46.364;17.008;2023-10-08T08:19:40;11.85;;;5.30;;
76202;SDS011;64985;46.364;17.008;2023-10-08T08:22:43;11.82;;;5.45;;
76202;SDS011;64985;46.364;17.008;2023-10-08T08:25:56;12.32;;;5.07;;
76202;SDS011;64985;46.364;17.008;2023-10-08T08:29:14;12.43;;;5.50;;
76202;SDS011;64985;46.364;17.008;2023-10-08T08:32:17;10.50;;;5.22;;
76202;SDS011;64985;46.364;17.008;2023-10-08T08:35:23;12.40;;;4.90;;
76202;SDS011;64985;46.364;17.008;2023-10-08T08:38:27;9.07;;;4.70;;
76202;SDS011;64985;46.364;17.008;2023-10-08T08:41:37;11.35;;;5.10;;
76202;SDS011;64985;46.364;17.008;2023-10-08T08:44:41;14.63;;;5.20;;
76202;SDS011;64985;46.364;17.008;2023-10-08T08:47:48;10.48;;;4.95;;
76202;SDS011;64985;46.364;17.008;2023-10-08T08:50:51;14.38;;;5.20;;
76202;SDS011;64985;46.364;17.008;2023-10-08T08:53:54;8.90;;;4.82;;
76202;SDS011;64985;46.364;17.008;2023-10-08T08:56:57;16.05;;;5.40;;
76202;SDS011;64985;46.364;17.008;2023-10-08T09:00:01;13.45;;;4.97;;
76202;SDS011;64985;46.364;17.008;2023-10-08T09:03:10;12.48;;;5.03;;
76202;SDS011;64985;46.364;17.008;2023-10-08T09:06:15;13.55;;;4.88;;
76202;SDS011;64985;46.364;17.008;2023-10-08T09:09:17;12.88;;;5.07;;
76202;SDS011;64985;46.364;17.008;2023-10-08T09:12:26;10.50;;;4.68;;
76202;SDS011;64985;46.364;17.008;2023-10-08T09:15:28;14.13;;;4.60;;
76202;SDS011;64985;46.364;17.008;2023-10-08T09:18:31;11.10;;;4.57;;
76202;SDS011;64985;46.364;17.008;2023-10-08T09:21:34;10.35;;;4.90;;
76202;SDS011;64985;46.364;17.008;2023-10-08T09:24:37;12.85;;;4.63;;
76202;SDS011;64985;46.364;17.008;2023-10-08T09:27:41;10.23;;;4.32;;
76202;SDS011;64985;46.364;17.008;2023-10-08T09:30:48;11.43;;;4.65;;
76202;SDS011;64985;46.364;17.008;2023-10-08T09:33:54;11.35;;;4.78;;
76202;SDS011;64985;46.364;17.008;2023-10-08T09:36:58;14.05;;;4.65;;
76202;SDS011;64985;46.364;17.008;2023-10-08T09:40:04;20.15;;;4.72;;
76202;SDS011;64985;46.364;17.008;2023-10-08T09:43:12;11.63;;;4.43;;
76202;SDS011;64985;46.364;17.008;2023-10-08T09:46:20;10.65;;;4.30;;
76202;SDS011;64985;46.364;17.008;2023-10-08T09:49:32;11.48;;;4.13;;
76202;SDS011;64985;46.364;17.008;2023-10-08T09:56:03;13.98;;;4.55;;
76202;SDS011;64985;46.364;17.008;2023-10-08T09:59:15;11.82;;;4.70;;
76202;SDS011;64985;46.364;17.008;2023-10-08T10:02:18;12.35;;;4.40;;
76202;SDS011;64985;46.364;17.008;2023-10-08T10:05:27;10.93;;;4.72;;
76202;SDS011;64985;46.364;17.008;2023-10-08T10:08:37;15.48;;;4.35;;
76202;SDS011;64985;46.364;17.008;2023-10-08T10:11:39;12.38;;;4.32;;
76202;SDS011;64985;46.364;17.008;2023-10-08T10:14:42;12.20;;;4.68;;
76202;SDS011;64985;46.364;17.008;2023-10-08T10:17:47;14.55;;;4.70;;
76202;SDS011;64985;46.364;17.008;2023-10-08T10:20:52;14.18;;;4.40;;
76202;SDS011;64985;46.364;17.008;2023-10-08T10:24:01;18.45;;;4.15;;
76202;SDS011;64985;46.364;17.008;2023-10-08T10:27:14;13.27;;;4.47;;
76202;SDS011;64985;46.364;17.008;2023-10-08T10:30:17;13.98;;;4.13;;
76202;SDS011;64985;46.364;17.008;2023-10-08T10:33:31;11.85;;;4.00;;
76202;SDS011;64985;46.364;17.008;2023-10-08T10:36:35;14.73;;;4.15;;
76202;SDS011;64985;46.364;17.008;2023-10-08T10:39:38;8.77;;;3.80;;
76202;SDS011;64985;46.364;17.008;2023-10-08T10:42:47;17.55;;;3.78;;
76202;SDS011;64985;46.364;17.008;2023-10-08T10:45:54;14.82;;;3.83;;
76202;SDS011;64985;46.364;17.008;2023-10-08T10:48:57;13.60;;;3.85;;
76202;SDS011;64985;46.364;17.008;2023-10-08T10:52:23;19.65;;;4.00;;
76202;SDS011;64985;46.364;17.008;2023-10-08T10:55:45;13.95;;;3.47;;
76202;SDS011;64985;46.364;17.008;2023-10-08T10:59:08;14.57;;;3.70;;
76202;SDS011;64985;46.364;17.008;2023-10-08T11:02:29;18.40;;;3.38;;
76202;SDS011;64985;46.364;17.008;2023-10-08T11:05:34;20.65;;;3.50;;
76202;SDS011;64985;46.364;17.008;2023-10-08T11:08:39;19.20;;;2.72;;
76202;SDS011;64985;46.364;17.008;2023-10-08T11:11:48;13.27;;;3.10;;
76202;SDS011;64985;46.364;17.008;2023-10-08T11:14:56;9.52;;;3.55;;
76202;SDS011;64985;46.364;17.008;2023-10-08T11:17:59;11.43;;;3.97;;
76202;SDS011;64985;46.364;17.008;2023-10-08T11:21:05;13.75;;;3.63;;
76202;SDS011;64985;46.364;17.008;2023-10-08T11:24:31;13.65;;;3.53;;
76202;SDS011;64985;46.364;17.008;2023-10-08T11:27:39;17.75;;;4.18;;
76202;SDS011;64985;46.364;17.008;2023-10-08T11:30:41;15.32;;;4.50;;
76202;SDS011;64985;46.364;17.008;2023-10-08T11:33:45;11.60;;;4.20;;
76202;SDS011;64985;46.364;17.008;2023-10-08T11:36:57;17.67;;;4.63;;
76202;SDS011;64985;46.364;17.008;2023-10-08T11:39:59;10.00;;;4.40;;
76202;SDS011;64985;46.364;17.008;2023-10-08T11:43:15;12.18;;;4.57;;
76202;SDS011;64985;46.364;17.008;2023-10-08T11:46:21;12.70;;;4.40;;
76202;SDS011;64985;46.364;17.008;2023-10-08T11:49:31;15.75;;;3.92;;
76202;SDS011;64985;46.364;17.008;2023-10-08T11:52:38;13.15;;;3.97;;
76202;SDS011;64985;46.364;17.008;2023-10-08T11:55:43;12.75;;;3.80;;
76202;SDS011;64985;46.364;17.008;2023-10-08T11:58:49;14.15;;;3.92;;
76202;SDS011;64985;46.364;17.008;2023-10-08T12:01:53;19.65;;;4.05;;
76202;SDS011;64985;46.364;17.008;2023-10-08T12:04:58;19.58;;;3.63;;
76202;SDS011;64985;46.364;17.008;2023-10-08T12:08:00;14.25;;;3.63;;
76202;SDS011;64985;46.364;17.008;2023-10-08T12:11:03;15.43;;;3.60;;
76202;SDS011;64985;46.364;17.008;2023-10-08T12:14:05;14.45;;;3.83;;
76202;SDS011;64985;46.364;17.008;2023-10-08T12:17:08;13.02;;;3.30;;
76202;SDS011;64985;46.364;17.008;2023-10-08T12:20:13;36.60;;;4.32;;
76202;SDS011;64985;46.364;17.008;2023-10-08T12:23:25;10.68;;;3.33;;
76202;SDS011;64985;46.364;17.008;2023-10-08T12:26:28;13.40;;;3.25;;
76202;SDS011;64985;46.364;17.008;2023-10-08T12:29:32;25.83;;;4.43;;
76202;SDS011;64985;46.364;17.008;2023-10-08T12:32:35;14.65;;;3.58;;
76202;SDS011;64985;46.364;17.008;2023-10-08T12:35:40;20.90;;;3.78;;
76202;SDS011;64985;46.364;17.008;2023-10-08T12:38:42;28.80;;;3.65;;
76202;SDS011;64985;46.364;17.008;2023-10-08T12:41:45;13.75;;;3.58;;
76202;SDS011;64985;46.364;17.008;2023-10-08T12:44:48;16.98;;;3.55;;
76202;SDS011;64985;46.364;17.008;2023-10-08T12:47:51;13.60;;;3.60;;
76202;SDS011;64985;46.364;17.008;2023-10-08T12:50:54;18.33;;;3.60;;
76202;SDS011;64985;46.364;17.008;2023-10-08T12:54:01;19.73;;;3.85;;
76202;SDS011;64985;46.364;17.008;2023-10-08T12:57:14;15.35;;;3.40;;
76202;SDS011;64985;46.364;17.008;2023-10-08T13:00:21;14.35;;;3.00;;
76202;SDS011;64985;46.364;17.008;2023-10-08T13:03:26;13.52;;;2.70;;
76202;SDS011;64985;46.364;17.008;2023-10-08T13:06:34;13.93;;;3.03;;
76202;SDS011;64985;46.364;17.008;2023-10-08T13:09:40;9.27;;;2.58;;
76202;SDS011;64985;46.364;17.008;2023-10-08T13:12:45;17.02;;;2.85;;
76202;SDS011;64985;46.364;17.008;2023-10-08T13:15:49;8.05;;;2.50;;
76202;SDS011;64985;46.364;17.008;2023-10-08T13:18:53;15.85;;;3.10;;
76202;SDS011;64985;46.364;17.008;2023-10-08T13:22:00;14.73;;;3.03;;
76202;SDS011;64985;46.364;17.008;2023-10-08T13:25:05;16.63;;;3.03;;
76202;SDS011;64985;46.364;17.008;2023-10-08T13:28:09;13.25;;;2.40;;
76202;SDS011;64985;46.364;17.008;2023-10-08T13:31:14;5.90;;;1.52;;
76202;SDS011;64985;46.364;17.008;2023-10-08T13:34:21;7.90;;;1.67;;
76202;SDS011;64985;46.364;17.008;2023-10-08T13:37:24;6.22;;;1.48;;
76202;SDS011;64985;46.364;17.008;2023-10-08T13:40:28;8.82;;;1.20;;
76202;SDS011;64985;46.364;17.008;2023-10-08T13:43:36;4.88;;;1.00;;
76202;SDS011;64985;46.364;17.008;2023-10-08T13:46:41;2.20;;;0.80;;
76202;SDS011;64985;46.364;17.008;2023-10-08T13:49:52;4.22;;;0.70;;
76202;SDS011;64985;46.364;17.008;2023-10-08T13:52:56;7.45;;;0.60;;
76202;SDS011;64985;46.364;17.008;2023-10-08T13:56:03;2.17;;;0.52;;
76202;SDS011;64985;46.364;17.008;2023-10-08T13:59:07;182.20;;;6.28;;
76202;SDS011;64985;46.364;17.008;2023-10-08T14:02:16;3.50;;;0.40;;
76202;SDS011;64985;46.364;17.008;2023-10-08T14:05:24;18.60;;;0.80;;
76202;SDS011;64985;46.364;17.008;2023-10-08T14:08:29;5.10;;;0.40;;
76202;SDS011;64985;46.364;17.008;2023-10-08T14:11:34;1.48;;;0.28;;
76202;SDS011;64985;46.364;17.008;2023-10-08T14:14:40;2.40;;;0.30;;
76202;SDS011;64985;46.364;17.008;2023-10-08T14:17:47;1.88;;;0.30;;
76202;SDS011;64985;46.364;17.008;2023-10-08T14:20:51;6.68;;;0.35;;
76202;SDS011;64985;46.364;17.008;2023-10-08T14:23:57;2.03;;;0.38;;
76202;SDS011;64985;46.364;17.008;2023-10-08T14:27:06;9.35;;;0.50;;
76202;SDS011;64985;46.364;17.008;2023-10-08T14:30:14;1.67;;;0.30;;
76202;SDS011;64985;46.364;17.008;2023-10-08T14:33:24;3.80;;;0.60;;
76202;SDS011;64985;46.364;17.008;2023-10-08T14:36:29;2.80;;;0.50;;
76202;SDS011;64985;46.364;17.008;2023-10-08T14:39:53;1.85;;;0.40;;
76202;SDS011;64985;46.364;17.008;2023-10-08T14:43:16;3.25;;;0.38;;
76202;SDS011;64985;46.364;17.008;2023-10-08T14:46:24;5.82;;;0.40;;
76202;SDS011;64985;46.364;17.008;2023-10-08T14:49:31;2.75;;;0.30;;
76202;SDS011;64985;46.364;17.008;2023-10-08T14:52:35;2.65;;;0.20;;
76202;SDS011;64985;46.364;17.008;2023-10-08T14:55:40;2.47;;;0.20;;
76202;SDS011;64985;46.364;17.008;2023-10-08T14:58:44;0.22;;;0.13;;
76202;SDS011;64985;46.364;17.008;2023-10-08T15:01:51;2.97;;;0.10;;
76202;SDS011;64985;46.364;17.008;2023-10-08T15:04:54;0.15;;;0.10;;
76202;SDS011;64985;46.364;17.008;2023-10-08T15:08:00;0.45;;;0.10;;
76202;SDS011;64985;46.364;17.008;2023-10-08T15:11:03;0.22;;;0.10;;
76202;SDS011;64985;46.364;17.008;2023-10-08T15:14:09;2.65;;;0.30;;
76202;SDS011;64985;46.364;17.008;2023-10-08T15:17:14;3.20;;;0.10;;
76202;SDS011;64985;46.364;17.008;2023-10-08T15:20:18;0.47;;;0.20;;
76202;SDS011;64985;46.364;17.008;2023-10-08T15:23:26;0.85;;;0.30;;
76202;SDS011;64985;46.364;17.008;2023-10-08T15:26:29;1.77;;;0.20;;
76202;SDS011;64985;46.364;17.008;2023-10-08T15:29:32;1.20;;;0.40;;
76202;SDS011;64985;46.364;17.008;2023-10-08T15:32:35;1.30;;;0.30;;
76202;SDS011;64985;46.364;17.008;2023-10-08T15:35:40;1.83;;;0.50;;
76202;SDS011;64985;46.364;17.008;2023-10-08T15:38:42;2.65;;;0.65;;
76202;SDS011;64985;46.364;17.008;2023-10-08T15:41:46;4.35;;;1.10;;
76202;SDS011;64985;46.364;17.008;2023-10-08T15:44:49;1.33;;;1.00;;
76202;SDS011;64985;46.364;17.008;2023-10-08T15:47:52;0.55;;;0.30;;
76202;SDS011;64985;46.364;17.008;2023-10-08T15:50:56;1.60;;;0.30;;
76202;SDS011;64985;46.364;17.008;2023-10-08T15:54:00;3.10;;;0.40;;
76202;SDS011;64985;46.364;17.008;2023-10-08T15:57:04;2.42;;;0.32;;
76202;SDS011;64985;46.364;17.008;2023-10-08T16:00:07;4.43;;;0.40;;
76202;SDS011;64985;46.364;17.008;2023-10-08T16:03:11;0.60;;;0.40;;
76202;SDS011;64985;46.364;17.008;2023-10-08T16:06:16;2.47;;;0.40;;
76202;SDS011;64985;46.364;17.008;2023-10-08T16:09:21;0.45;;;0.32;;
76202;SDS011;64985;46.364;17.008;2023-10-08T16:12:25;2.30;;;0.45;;
76202;SDS011;64985;46.364;17.008;2023-10-08T16:15:28;6.22;;;0.63;;
76202;SDS011;64985;46.364;17.008;2023-10-08T16:18:31;0.88;;;0.50;;
76202;SDS011;64985;46.364;17.008;2023-10-08T16:21:33;0.82;;;0.40;;
76202;SDS011;64985;46.364;17.008;2023-10-08T16:24:39;0.75;;;0.30;;
76202;SDS011;64985;46.364;17.008;2023-10-08T16:27:45;2.30;;;0.68;;
76202;SDS011;64985;46.364;17.008;2023-10-08T16:30:52;2.30;;;0.75;;
76202;SDS011;64985;46.364;17.008;2023-10-08T16:33:56;3.40;;;0.60;;
76202;SDS011;64985;46.364;17.008;2023-10-08T16:36:58;3.63;;;1.00;;
76202;SDS011;64985;46.364;17.008;2023-10-08T16:40:04;5.15;;;3.03;;
76202;SDS011;64985;46.364;17.008;2023-10-08T16:43:09;2.70;;;1.80;;
76202;SDS011;64985;46.364;17.008;2023-10-08T16:46:16;1.52;;;0.93;;
76202;SDS011;64985;46.364;17.008;2023-10-08T16:49:19;3.97;;;1.55;;
76202;SDS011;64985;46.364;17.008;2023-10-08T16:52:23;2.70;;;1.10;;
76202;SDS011;64985;46.364;17.008;2023-10-08T16:55:26;3.47;;;1.30;;
76202;SDS011;64985;46.364;17.008;2023-10-08T16:58:30;3.03;;;0.90;;
76202;SDS011;64985;46.364;17.008;2023-10-08T17:01:34;2.20;;;1.00;;
76202;SDS011;64985;46.364;17.008;2023-10-08T17:04:39;1.45;;;0.98;;
76202;SDS011;64985;46.364;17.008;2023-10-08T17:07:43;2.50;;;1.23;;
76202;SDS011;64985;46.364;17.008;2023-10-08T17:10:49;3.83;;;1.13;;
76202;SDS011;64985;46.364;17.008;2023-10-08T17:13:53;3.40;;;1.27;;
76202;SDS011;64985;46.364;17.008;2023-10-08T17:16:56;2.42;;;1.10;;
76202;SDS011;64985;46.364;17.008;2023-10-08T17:20:02;6.18;;;1.60;;
76202;SDS011;64985;46.364;17.008;2023-10-08T17:23:13;3.70;;;1.40;;
76202;SDS011;64985;46.364;17.008;2023-10-08T17:26:17;4.18;;;1.25;;
76202;SDS011;64985;46.364;17.008;2023-10-08T17:29:24;2.67;;;1.13;;
76202;SDS011;64985;46.364;17.008;2023-10-08T17:32:28;2.85;;;1.23;;
76202;SDS011;64985;46.364;17.008;2023-10-08T17:35:31;2.13;;;1.20;;
76202;SDS011;64985;46.364;17.008;2023-10-08T17:38:35;4.72;;;1.83;;
76202;SDS011;64985;46.364;17.008;2023-10-08T17:41:38;5.75;;;1.55;;
76202;SDS011;64985;46.364;17.008;2023-10-08T17:44:41;2.15;;;1.45;;
76202;SDS011;64985;46.364;17.008;2023-10-08T17:47:47;5.28;;;1.40;;
76202;SDS011;64985;46.364;17.008;2023-10-08T17:50:57;3.65;;;1.38;;
76202;SDS011;64985;46.364;17.008;2023-10-08T17:54:07;2.13;;;1.38;;
76202;SDS011;64985;46.364;17.008;2023-10-08T17:57:15;5.47;;;1.40;;
76202;SDS011;64985;46.364;17.008;2023-10-08T18:00:18;2.35;;;1.30;;
76202;SDS011;64985;46.364;17.008;2023-10-08T18:03:24;2.63;;;1.30;;
76202;SDS011;64985;46.364;17.008;2023-10-08T18:06:29;2.85;;;1.25;;
76202;SDS011;64985;46.364;17.008;2023-10-08T18:09:34;3.13;;;1.27;;
76202;SDS011;64985;46.364;17.008;2023-10-08T18:12:40;2.38;;;1.20;;
76202;SDS011;64985;46.364;17.008;2023-10-08T18:15:44;4.40;;;1.23;;
76202;SDS011;64985;46.364;17.008;2023-10-08T18:18:48;1.95;;;1.20;;